createdAt,value
2022-10-09T00:03:25.110Z,17.00
2022-10-09T00:06:37.355Z,16.86
2022-10-09T00:09:49.152Z,16.80
2022-10-09T00:13:02.543Z,16.60
2022-10-09T00:16:14.255Z,16.60
2022-10-09T00:19:28.163Z,16.50
2022-10-09T00:22:44.670Z,16.44
2022-10-09T00:25:59.208Z,16.30
2022-10-09T00:29:16.381Z,16.30
2022-10-09T00:32:33.326Z,16.28
2022-10-09T00:35:52.271Z,16.30
2022-10-09T00:39:02.415Z,16.30
2022-10-09T00:42:12.238Z,16.32
2022-10-09T00:45:21.179Z,16.28
2022-10-09T00:48:35.227Z,16.20
2022-10-09T00:51:48.191Z,16.20
2022-10-09T00:55:14.141Z,16.20
2022-10-09T00:58:29.229Z,16.20
2022-10-09T01:01:36.473Z,16.20
2022-10-09T01:04:46.794Z,16.20
2022-10-09T01:07:59.401Z,16.20
2022-10-09T01:11:17.263Z,16.20
2022-10-09T01:14:27.362Z,16.20
2022-10-09T01:17:39.131Z,16.20
2022-10-09T01:20:49.964Z,16.20
2022-10-09T01:24:01.309Z,16.20
2022-10-09T01:27:11.468Z,16.20
2022-10-09T01:30:21.353Z,16.20
2022-10-09T01:33:31.360Z,16.20
2022-10-09T01:36:42.333Z,16.20
2022-10-09T01:39:50.315Z,16.20
2022-10-09T01:43:05.388Z,16.14
2022-10-09T01:46:13.358Z,16.08
2022-10-09T01:49:29.450Z,16.00
2022-10-09T01:52:41.130Z,16.00
2022-10-09T01:55:50.706Z,15.94
2022-10-09T01:59:06.491Z,15.90
2022-10-09T02:02:18.838Z,15.92
2022-10-09T02:05:27.680Z,15.90
2022-10-09T02:08:39.547Z,15.80
2022-10-09T02:11:54.424Z,15.80
2022-10-09T02:15:04.591Z,15.80
2022-10-09T02:18:17.478Z,15.78
2022-10-09T02:21:29.368Z,15.80
2022-10-09T02:24:47.651Z,15.84
2022-10-09T02:28:09.727Z,15.90
2022-10-09T02:31:23.013Z,15.90
2022-10-09T02:34:34.602Z,15.92
2022-10-09T02:37:44.591Z,15.90
2022-10-09T02:41:05.634Z,15.90
2022-10-09T02:44:16.494Z,15.82
2022-10-09T02:47:24.584Z,15.80
2022-10-09T02:50:34.544Z,15.80
2022-10-09T02:53:45.688Z,15.70
2022-10-09T02:56:57.613Z,15.70
2022-10-09T03:03:40.003Z,15.60
2022-10-09T03:07:34.269Z,15.60
2022-10-09T03:11:32.582Z,15.60
2022-10-09T03:14:46.608Z,15.56
2022-10-09T03:17:57.691Z,15.50
2022-10-09T03:21:06.633Z,15.50
2022-10-09T03:24:19.704Z,15.50
2022-10-09T03:27:29.606Z,15.46
2022-10-09T03:30:39.801Z,15.50
2022-10-09T03:33:50.693Z,15.50
2022-10-09T03:36:58.695Z,15.40
2022-10-09T03:40:08.762Z,15.30
2022-10-09T03:43:16.618Z,15.30
2022-10-09T03:47:12.953Z,15.36
2022-10-09T03:50:18.760Z,15.30
2022-10-09T03:53:34.887Z,15.30
2022-10-09T03:56:48.803Z,15.40
2022-10-09T04:00:05.710Z,15.30
2022-10-09T04:03:18.888Z,15.30
2022-10-09T04:06:30.926Z,15.30
2022-10-09T04:09:50.347Z,15.30
2022-10-09T04:13:00.738Z,15.28
2022-10-09T04:16:13.752Z,15.20
2022-10-09T04:19:23.836Z,15.20
2022-10-09T04:22:31.724Z,15.30
2022-10-09T04:25:38.826Z,15.30
2022-10-09T04:28:46.950Z,15.40
2022-10-09T04:32:02.724Z,15.40
2022-10-09T04:35:15.799Z,15.34
2022-10-09T04:38:31.653Z,15.30
2022-10-09T04:41:38.813Z,15.20
2022-10-09T04:44:48.849Z,15.10
2022-10-09T04:47:58.949Z,15.00
2022-10-09T04:51:09.906Z,15.02
2022-10-09T04:54:19.866Z,15.00
2022-10-09T04:57:33.946Z,14.90
2022-10-09T05:00:45.515Z,14.92
2022-10-09T05:03:55.932Z,14.88
2022-10-09T05:07:03.983Z,14.80
2022-10-09T05:10:18.683Z,14.88
2022-10-09T05:13:25.946Z,14.84
2022-10-09T05:16:40.777Z,14.86
2022-10-09T05:20:02.895Z,14.90
2022-10-09T05:23:09.816Z,15.00
2022-10-09T05:26:19.932Z,15.00
2022-10-09T05:29:29.758Z,14.90
2022-10-09T05:32:39.925Z,14.90
2022-10-09T05:35:49.954Z,15.00
2022-10-09T05:38:56.907Z,15.00
2022-10-09T05:42:06.906Z,15.10
2022-10-09T05:45:17.914Z,15.20
2022-10-09T05:48:28.041Z,15.20
2022-10-09T05:51:42.952Z,15.20
2022-10-09T05:54:58.520Z,15.20
2022-10-09T05:58:05.946Z,15.30
2022-10-09T06:01:21.189Z,15.40
2022-10-09T06:04:29.065Z,15.60
2022-10-09T06:07:40.989Z,15.70
2022-10-09T06:10:51.115Z,15.80
2022-10-09T06:14:00.982Z,15.90
2022-10-09T06:17:08.005Z,16.08
2022-10-09T06:20:18.008Z,16.20
2022-10-09T06:23:25.061Z,16.22
2022-10-09T06:26:35.082Z,16.40
2022-10-09T06:29:49.068Z,16.52
2022-10-09T06:33:03.176Z,16.70
2022-10-09T06:36:18.109Z,16.80
2022-10-09T06:39:38.485Z,17.00
2022-10-09T06:42:48.336Z,17.18
2022-10-09T06:45:56.291Z,17.30
2022-10-09T06:49:10.090Z,17.40
2022-10-09T06:52:20.278Z,17.60
2022-10-09T06:55:36.133Z,17.78
2022-10-09T07:02:26.510Z,18.00
2022-10-09T07:08:54.312Z,18.40
2022-10-09T07:12:15.347Z,18.50
2022-10-09T07:16:05.139Z,18.60
2022-10-09T07:19:25.382Z,18.80
2022-10-09T07:22:34.364Z,19.00
2022-10-09T07:25:43.319Z,19.10
2022-10-09T07:29:01.122Z,19.20
2022-10-09T07:32:13.227Z,19.30
2022-10-09T07:35:48.825Z,19.50
2022-10-09T07:39:47.265Z,19.60
2022-10-09T07:43:10.585Z,19.74
2022-10-09T07:47:18.352Z,19.90
2022-10-09T07:50:30.373Z,20.00
2022-10-09T07:57:13.604Z,20.20
2022-10-09T08:01:04.821Z,20.30
2022-10-09T08:04:22.431Z,20.40
2022-10-09T08:07:37.168Z,20.50
2022-10-09T08:10:46.500Z,20.50
2022-10-09T08:13:58.345Z,20.48
2022-10-09T08:17:17.474Z,20.48
2022-10-09T08:20:31.567Z,20.50
2022-10-09T08:23:43.657Z,20.60
2022-10-09T08:26:59.387Z,20.60
2022-10-09T08:33:39.559Z,20.60
2022-10-09T08:36:50.371Z,20.70
2022-10-09T08:40:10.495Z,20.66
2022-10-09T08:43:29.445Z,20.70
2022-10-09T08:58:06.501Z,21.10
2022-10-09T09:01:29.759Z,21.20
2022-10-09T09:08:25.377Z,21.20
2022-10-09T09:12:04.591Z,21.30
2022-10-09T09:15:21.562Z,21.30
2022-10-09T09:18:41.943Z,21.32
2022-10-09T09:21:57.600Z,21.40
2022-10-09T09:28:34.598Z,21.60
2022-10-09T09:35:25.623Z,21.80
2022-10-09T09:43:06.768Z,21.90
2022-10-09T09:46:30.762Z,21.90
2022-10-09T10:00:41.671Z,22.10
2022-10-09T10:33:45.818Z,22.82
2022-10-09T10:37:44.799Z,22.90
2022-10-09T10:41:37.292Z,23.00
2022-10-09T10:45:26.292Z,23.12
2022-10-09T10:52:31.627Z,23.38
2022-10-09T10:59:55.414Z,23.32
2022-10-09T11:03:15.001Z,23.30
2022-10-09T11:10:05.014Z,23.12
2022-10-09T11:13:51.966Z,23.00
2022-10-09T11:21:25.946Z,22.92
2022-10-09T11:25:33.921Z,22.96
2022-10-09T11:37:38.435Z,22.90
2022-10-09T11:41:47.900Z,23.00
2022-10-09T11:45:59.109Z,22.98
2022-10-09T11:49:58.648Z,22.84
2022-10-09T11:53:51.130Z,22.80
2022-10-09T11:58:03.936Z,22.76
2022-10-09T12:01:53.394Z,22.70
2022-10-09T12:05:46.591Z,22.74
2022-10-09T12:09:44.974Z,22.70
2022-10-09T12:13:17.406Z,22.70
2022-10-09T12:16:49.329Z,22.70
2022-10-09T12:31:50.645Z,22.70
2022-10-09T12:38:48.345Z,22.70
2022-10-09T12:42:04.890Z,22.80
2022-10-09T12:45:16.283Z,22.90
2022-10-09T12:48:31.251Z,22.90
2022-10-09T12:55:07.294Z,22.80
2022-10-09T12:58:38.312Z,22.78
2022-10-09T13:01:53.749Z,22.70
2022-10-09T13:05:43.419Z,22.68
2022-10-09T13:12:38.315Z,22.60
2022-10-09T13:15:56.351Z,22.60
2022-10-09T13:19:12.407Z,22.58
2022-10-09T13:22:38.376Z,22.50
2022-10-09T13:25:50.376Z,22.50
2022-10-09T13:29:03.349Z,22.50
2022-10-09T13:32:20.326Z,22.50
2022-10-09T13:36:02.307Z,22.50
2022-10-09T13:39:25.658Z,22.50
2022-10-09T13:42:36.467Z,22.50
2022-10-09T13:46:11.440Z,22.50
2022-10-09T13:49:41.130Z,22.50
2022-10-09T13:53:05.470Z,22.50
2022-10-09T13:56:17.579Z,22.50
2022-10-09T13:59:30.616Z,22.50
2022-10-09T14:03:04.550Z,22.50
2022-10-09T14:06:20.624Z,22.50
2022-10-09T14:09:45.088Z,22.46
2022-10-09T14:13:20.776Z,22.40
2022-10-09T14:16:43.617Z,22.40
2022-10-09T14:19:53.622Z,22.40
2022-10-09T14:23:05.737Z,22.40
2022-10-09T14:31:18.218Z,22.30
2022-10-09T14:35:02.068Z,22.30
2022-10-09T14:38:23.325Z,22.20
2022-10-09T14:42:04.647Z,22.20
2022-10-09T14:45:48.843Z,22.16
2022-10-09T14:53:38.980Z,22.10
2022-10-09T15:03:49.845Z,22.00
2022-10-09T15:07:10.024Z,22.00
2022-10-09T15:10:24.101Z,21.90
2022-10-09T15:13:33.964Z,21.90
2022-10-09T15:21:07.930Z,21.80
2022-10-09T15:25:16.053Z,21.80
2022-10-09T15:28:43.190Z,21.80
2022-10-09T15:32:28.311Z,21.80
2022-10-09T15:35:49.153Z,21.70
2022-10-09T15:39:47.393Z,21.70
2022-10-09T15:43:47.301Z,21.70
2022-10-09T15:47:51.387Z,21.70
2022-10-09T15:51:09.117Z,21.60
2022-10-09T15:54:26.283Z,21.60
2022-10-09T15:58:04.190Z,21.60
2022-10-09T16:01:22.569Z,21.60
2022-10-09T16:04:37.766Z,21.60
2022-10-09T16:07:46.891Z,21.60
2022-10-09T16:11:10.192Z,21.60
2022-10-09T16:14:30.485Z,21.60
2022-10-09T16:18:22.745Z,21.60
2022-10-09T16:22:16.915Z,21.56
2022-10-09T16:25:43.397Z,21.50
2022-10-09T16:28:54.188Z,21.50
2022-10-09T16:32:09.887Z,21.50
2022-10-09T16:35:25.083Z,21.46
2022-10-09T16:39:14.646Z,21.40
2022-10-09T16:49:40.133Z,21.40
2022-10-09T16:53:01.204Z,21.40
2022-10-09T16:56:16.302Z,21.40
2022-10-09T16:59:44.546Z,21.36
2022-10-09T17:03:29.090Z,21.30
2022-10-09T17:07:24.782Z,21.30
2022-10-09T17:11:12.809Z,21.30
2022-10-09T17:15:04.339Z,21.20
2022-10-09T17:18:24.324Z,21.20
2022-10-09T17:21:44.400Z,21.20
2022-10-09T17:25:39.681Z,21.18
2022-10-09T17:29:30.543Z,21.10
2022-10-09T17:33:29.323Z,21.10
2022-10-09T17:37:20.238Z,21.10
2022-10-09T17:41:21.168Z,21.10
2022-10-09T17:44:25.444Z,21.10
2022-10-09T17:47:42.437Z,21.10
2022-10-09T17:51:26.453Z,21.02
2022-10-09T17:54:49.454Z,21.00
2022-10-09T17:57:58.429Z,21.00
2022-10-09T18:01:15.562Z,21.00
2022-10-09T18:04:24.414Z,21.00
2022-10-09T18:07:39.478Z,20.92
2022-10-09T18:11:24.502Z,20.90
2022-10-09T18:18:48.443Z,20.80
2022-10-09T18:21:54.445Z,20.80
2022-10-09T18:25:05.394Z,20.80
2022-10-09T18:28:14.541Z,20.74
2022-10-09T18:31:20.444Z,20.70
2022-10-09T18:34:39.275Z,20.70
2022-10-09T18:37:48.539Z,20.70
2022-10-09T18:40:54.450Z,20.60
2022-10-09T18:44:03.468Z,20.60
2022-10-09T18:47:09.445Z,20.50
2022-10-09T18:50:18.895Z,20.50
2022-10-09T18:53:31.462Z,20.44
2022-10-09T18:56:37.497Z,20.40
2022-10-09T18:59:46.506Z,20.38
2022-10-09T19:02:55.626Z,20.30
2022-10-09T19:06:05.590Z,20.30
2022-10-09T19:09:16.481Z,20.20
2022-10-09T19:12:22.790Z,20.20
2022-10-09T19:15:31.644Z,20.16
2022-10-09T19:18:40.685Z,20.10
2022-10-09T19:21:48.726Z,20.00
2022-10-09T19:24:54.634Z,19.98
2022-10-09T19:28:02.601Z,19.86
2022-10-09T19:31:07.515Z,19.80
2022-10-09T19:34:13.523Z,19.74
2022-10-09T19:37:23.785Z,19.70
2022-10-09T19:40:35.694Z,19.60
2022-10-09T19:43:41.548Z,19.56
2022-10-09T19:46:49.554Z,19.44
2022-10-09T19:49:55.782Z,19.40
2022-10-09T19:53:03.560Z,19.38
2022-10-09T19:56:15.605Z,19.30
2022-10-09T19:59:21.741Z,19.30
2022-10-09T20:02:30.716Z,19.22
2022-10-09T20:05:39.662Z,19.20
2022-10-09T20:08:48.723Z,19.20
2022-10-09T20:11:57.702Z,19.20
2022-10-09T20:15:08.852Z,19.20
2022-10-09T20:18:17.790Z,19.20
2022-10-09T20:21:29.790Z,19.20
2022-10-09T20:24:40.695Z,19.20
2022-10-09T20:27:55.258Z,19.14
2022-10-09T20:31:11.679Z,19.10
2022-10-09T20:34:17.721Z,19.10
2022-10-09T20:37:28.676Z,19.10
2022-10-09T20:40:42.601Z,19.10
2022-10-09T20:43:51.754Z,19.10
2022-10-09T20:46:57.776Z,19.10
2022-10-09T20:50:03.848Z,19.10
2022-10-09T20:53:09.895Z,19.10
2022-10-09T20:56:18.963Z,19.18
2022-10-09T20:59:27.776Z,19.20
2022-10-09T21:02:38.029Z,19.20
2022-10-09T21:05:43.796Z,19.26
2022-10-09T21:08:49.923Z,19.20
2022-10-09T21:11:55.920Z,19.20
2022-10-09T21:15:05.052Z,19.20
2022-10-09T21:18:12.233Z,19.20
2022-10-09T21:21:50.709Z,19.20
2022-10-09T21:25:13.861Z,19.20
2022-10-09T21:28:22.944Z,19.10
2022-10-09T21:31:38.654Z,19.00
2022-10-09T21:34:51.393Z,19.00
2022-10-09T21:38:15.047Z,18.90
2022-10-09T21:41:23.915Z,18.80
2022-10-09T21:44:34.835Z,18.70
2022-10-09T21:47:40.906Z,18.68
2022-10-09T21:50:46.873Z,18.62
2022-10-09T21:53:52.860Z,18.68
2022-10-09T21:56:58.902Z,18.60
2022-10-09T22:00:04.866Z,18.60
2022-10-09T22:03:02.943Z,18.60
2022-10-09T22:06:16.346Z,18.60
2022-10-09T22:09:34.063Z,18.60
2022-10-09T22:12:41.004Z,18.68
2022-10-09T22:15:52.057Z,18.70
2022-10-09T22:19:40.784Z,18.70
2022-10-09T22:22:46.061Z,18.60
2022-10-09T22:26:13.044Z,18.64
2022-10-09T22:29:23.030Z,18.60
2022-10-09T22:32:28.978Z,18.60
2022-10-09T22:35:37.133Z,18.60
2022-10-09T22:38:55.060Z,18.60
2022-10-09T22:42:01.065Z,18.60
2022-10-09T22:45:07.117Z,18.62
2022-10-09T22:48:15.018Z,18.68
2022-10-09T22:51:21.076Z,18.70
2022-10-09T22:54:27.172Z,18.70
2022-10-09T22:57:36.037Z,18.76
2022-10-09T23:00:44.058Z,18.70
2022-10-09T23:03:50.087Z,18.70
2022-10-09T23:06:57.979Z,18.70
2022-10-09T23:10:06.244Z,18.68
2022-10-09T23:13:12.125Z,18.60
2022-10-09T23:16:24.236Z,18.60
2022-10-09T23:19:31.140Z,18.58
2022-10-09T23:22:40.131Z,18.50
2022-10-09T23:25:48.127Z,18.52
2022-10-09T23:28:57.338Z,18.52
2022-10-09T23:32:03.191Z,18.50
2022-10-09T23:35:09.224Z,18.40
2022-10-09T23:38:17.189Z,18.30
2022-10-09T23:41:23.141Z,18.28
2022-10-09T23:44:32.202Z,18.20
2022-10-09T23:47:40.187Z,18.20
2022-10-09T23:50:59.443Z,18.28
2022-10-09T23:54:05.249Z,18.30
2022-10-09T23:57:14.173Z,18.34
